sensor_id;sensor_type;location;lat;lon;timestamp;P1;durP1;ratioP1;P2;durP2;ratioP2
59024;SDS011;44806;48.008;13.666;2022-08-21T00:01:54;210.77;;;54.33;;
59024;SDS011;44806;48.008;13.666;2022-08-21T00:04:21;184.25;;;56.42;;
59024;SDS011;44806;48.008;13.666;2022-08-21T00:06:49;281.95;;;61.75;;
59024;SDS011;44806;48.008;13.666;2022-08-21T00:09:19;371.42;;;78.80;;
59024;SDS011;44806;48.008;13.666;2022-08-21T00:11:46;478.42;;;87.05;;
59024;SDS011;44806;48.008;13.666;2022-08-21T00:14:14;385.65;;;64.10;;
59024;SDS011;44806;48.008;13.666;2022-08-21T00:16:43;334.33;;;66.53;;
59024;SDS011;44806;48.008;13.666;2022-08-21T00:19:11;426.88;;;85.90;;
59024;SDS011;44806;48.008;13.666;2022-08-21T00:21:38;244.02;;;50.38;;
59024;SDS011;44806;48.008;13.666;2022-08-21T00:24:09;194.02;;;61.42;;
59024;SDS011;44806;48.008;13.666;2022-08-21T00:26:36;412.20;;;87.13;;
59024;SDS011;44806;48.008;13.666;2022-08-21T00:29:06;592.22;;;92.72;;
59024;SDS011;44806;48.008;13.666;2022-08-21T00:31:33;251.52;;;51.67;;
59024;SDS011;44806;48.008;13.666;2022-08-21T00:34:02;347.88;;;66.82;;
59024;SDS011;44806;48.008;13.666;2022-08-21T00:36:29;243.93;;;56.00;;
59024;SDS011;44806;48.008;13.666;2022-08-21T00:38:57;517.03;;;88.13;;
59024;SDS011;44806;48.008;13.666;2022-08-21T00:41:28;385.83;;;70.40;;
59024;SDS011;44806;48.008;13.666;2022-08-21T00:43:55;254.70;;;58.17;;
59024;SDS011;44806;48.008;13.666;2022-08-21T00:46:25;338.77;;;68.40;;
59024;SDS011;44806;48.008;13.666;2022-08-21T00:48:52;148.63;;;52.28;;
59024;SDS011;44806;48.008;13.666;2022-08-21T00:51:22;175.43;;;42.15;;
59024;SDS011;44806;48.008;13.666;2022-08-21T00:53:55;239.18;;;46.92;;
59024;SDS011;44806;48.008;13.666;2022-08-21T00:56:27;319.00;;;59.17;;
59024;SDS011;44806;48.008;13.666;2022-08-21T00:58:55;444.17;;;79.72;;
59024;SDS011;44806;48.008;13.666;2022-08-21T01:01:25;266.13;;;50.95;;
59024;SDS011;44806;48.008;13.666;2022-08-21T01:03:53;156.18;;;44.90;;
59024;SDS011;44806;48.008;13.666;2022-08-21T01:06:22;403.65;;;71.45;;
59024;SDS011;44806;48.008;13.666;2022-08-21T01:08:49;221.85;;;50.97;;
59024;SDS011;44806;48.008;13.666;2022-08-21T01:11:17;311.00;;;71.80;;
59024;SDS011;44806;48.008;13.666;2022-08-21T01:13:44;283.10;;;52.72;;
59024;SDS011;44806;48.008;13.666;2022-08-21T01:18:41;200.88;;;44.67;;
59024;SDS011;44806;48.008;13.666;2022-08-21T01:21:12;377.05;;;72.78;;
59024;SDS011;44806;48.008;13.666;2022-08-21T01:23:44;381.80;;;72.97;;
59024;SDS011;44806;48.008;13.666;2022-08-21T01:26:16;370.23;;;73.10;;
59024;SDS011;44806;48.008;13.666;2022-08-21T01:28:47;318.63;;;55.47;;
59024;SDS011;44806;48.008;13.666;2022-08-21T01:31:19;216.20;;;51.65;;
59024;SDS011;44806;48.008;13.666;2022-08-21T01:33:52;311.20;;;66.28;;
59024;SDS011;44806;48.008;13.666;2022-08-21T01:36:22;195.68;;;48.42;;
59024;SDS011;44806;48.008;13.666;2022-08-21T01:38:51;235.27;;;47.08;;
59024;SDS011;44806;48.008;13.666;2022-08-21T01:41:19;166.65;;;48.05;;
59024;SDS011;44806;48.008;13.666;2022-08-21T01:43:46;483.92;;;88.43;;
59024;SDS011;44806;48.008;13.666;2022-08-21T01:46:14;219.07;;;52.55;;
59024;SDS011;44806;48.008;13.666;2022-08-21T01:48:42;269.05;;;47.63;;
59024;SDS011;44806;48.008;13.666;2022-08-21T01:51:13;326.83;;;54.88;;
59024;SDS011;44806;48.008;13.666;2022-08-21T01:53:41;383.50;;;71.68;;
59024;SDS011;44806;48.008;13.666;2022-08-21T01:56:10;237.88;;;57.28;;
59024;SDS011;44806;48.008;13.666;2022-08-21T01:58:39;155.50;;;41.55;;
59024;SDS011;44806;48.008;13.666;2022-08-21T02:01:07;258.65;;;48.67;;
59024;SDS011;44806;48.008;13.666;2022-08-21T02:03:35;449.80;;;86.97;;
59024;SDS011;44806;48.008;13.666;2022-08-21T02:06:03;271.92;;;51.35;;
59024;SDS011;44806;48.008;13.666;2022-08-21T02:08:32;368.45;;;65.68;;
59024;SDS011;44806;48.008;13.666;2022-08-21T02:11:00;194.23;;;38.88;;
59024;SDS011;44806;48.008;13.666;2022-08-21T02:13:28;210.88;;;49.33;;
59024;SDS011;44806;48.008;13.666;2022-08-21T02:15:55;282.63;;;59.33;;
59024;SDS011;44806;48.008;13.666;2022-08-21T02:18:23;400.90;;;77.40;;
59024;SDS011;44806;48.008;13.666;2022-08-21T02:20:52;252.18;;;56.00;;
59024;SDS011;44806;48.008;13.666;2022-08-21T02:23:20;389.25;;;66.65;;
59024;SDS011;44806;48.008;13.666;2022-08-21T02:25:47;407.40;;;84.57;;
59024;SDS011;44806;48.008;13.666;2022-08-21T02:28:16;414.75;;;91.55;;
59024;SDS011;44806;48.008;13.666;2022-08-21T02:30:45;460.05;;;107.88;;
59024;SDS011;44806;48.008;13.666;2022-08-21T02:33:15;444.27;;;82.13;;
59024;SDS011;44806;48.008;13.666;2022-08-21T02:35:43;324.30;;;66.78;;
59024;SDS011;44806;48.008;13.666;2022-08-21T02:38:12;240.95;;;63.78;;
59024;SDS011;44806;48.008;13.666;2022-08-21T02:40:42;345.27;;;55.85;;
59024;SDS011;44806;48.008;13.666;2022-08-21T02:43:12;335.80;;;60.05;;
59024;SDS011;44806;48.008;13.666;2022-08-21T02:45:42;179.50;;;46.83;;
59024;SDS011;44806;48.008;13.666;2022-08-21T02:48:12;164.88;;;59.40;;
59024;SDS011;44806;48.008;13.666;2022-08-21T02:50:42;393.33;;;76.90;;
59024;SDS011;44806;48.008;13.666;2022-08-21T02:53:11;430.50;;;80.20;;
59024;SDS011;44806;48.008;13.666;2022-08-21T02:55:41;332.05;;;54.20;;
59024;SDS011;44806;48.008;13.666;2022-08-21T02:58:12;503.13;;;92.93;;
59024;SDS011;44806;48.008;13.666;2022-08-21T03:00:42;301.35;;;59.08;;
59024;SDS011;44806;48.008;13.666;2022-08-21T03:03:13;395.10;;;70.50;;
59024;SDS011;44806;48.008;13.666;2022-08-21T03:05:40;522.80;;;79.85;;
59024;SDS011;44806;48.008;13.666;2022-08-21T03:08:09;299.65;;;71.32;;
59024;SDS011;44806;48.008;13.666;2022-08-21T03:10:38;231.68;;;56.25;;
59024;SDS011;44806;48.008;13.666;2022-08-21T03:13:07;351.90;;;54.42;;
59024;SDS011;44806;48.008;13.666;2022-08-21T03:15:35;194.15;;;40.63;;
59024;SDS011;44806;48.008;13.666;2022-08-21T03:18:05;210.90;;;36.47;;
59024;SDS011;44806;48.008;13.666;2022-08-21T03:20:33;469.70;;;88.22;;
59024;SDS011;44806;48.008;13.666;2022-08-21T03:23:04;522.08;;;113.90;;
59024;SDS011;44806;48.008;13.666;2022-08-21T03:25:33;558.60;;;109.60;;
59024;SDS011;44806;48.008;13.666;2022-08-21T03:28:02;440.73;;;102.00;;
59024;SDS011;44806;48.008;13.666;2022-08-21T03:30:32;432.42;;;74.72;;
59024;SDS011;44806;48.008;13.666;2022-08-21T03:33:01;423.63;;;75.95;;
59024;SDS011;44806;48.008;13.666;2022-08-21T03:35:30;340.02;;;67.22;;
59024;SDS011;44806;48.008;13.666;2022-08-21T03:38:00;493.40;;;79.22;;
59024;SDS011;44806;48.008;13.666;2022-08-21T03:40:27;246.20;;;40.65;;
59024;SDS011;44806;48.008;13.666;2022-08-21T03:42:56;416.85;;;68.82;;
59024;SDS011;44806;48.008;13.666;2022-08-21T03:45:24;396.23;;;66.55;;
59024;SDS011;44806;48.008;13.666;2022-08-21T03:47:53;385.10;;;68.60;;
59024;SDS011;44806;48.008;13.666;2022-08-21T03:50:23;253.98;;;53.22;;
59024;SDS011;44806;48.008;13.666;2022-08-21T03:52:53;208.38;;;46.03;;
59024;SDS011;44806;48.008;13.666;2022-08-21T03:55:20;539.28;;;81.00;;
59024;SDS011;44806;48.008;13.666;2022-08-21T03:57:48;348.50;;;67.43;;
59024;SDS011;44806;48.008;13.666;2022-08-21T04:00:16;241.57;;;58.47;;
59024;SDS011;44806;48.008;13.666;2022-08-21T04:02:45;376.77;;;66.88;;
59024;SDS011;44806;48.008;13.666;2022-08-21T04:05:15;206.43;;;69.25;;
59024;SDS011;44806;48.008;13.666;2022-08-21T04:07:54;376.50;;;57.50;;
59024;SDS011;44806;48.008;13.666;2022-08-21T04:10:23;470.40;;;84.03;;
59024;SDS011;44806;48.008;13.666;2022-08-21T04:12:51;189.38;;;50.90;;
59024;SDS011;44806;48.008;13.666;2022-08-21T04:15:19;309.63;;;68.20;;
59024;SDS011;44806;48.008;13.666;2022-08-21T04:17:46;451.77;;;88.63;;
59024;SDS011;44806;48.008;13.666;2022-08-21T04:20:14;402.48;;;69.70;;
59024;SDS011;44806;48.008;13.666;2022-08-21T04:22:42;354.77;;;82.88;;
59024;SDS011;44806;48.008;13.666;2022-08-21T04:25:11;357.58;;;62.15;;
59024;SDS011;44806;48.008;13.666;2022-08-21T04:27:40;284.02;;;61.28;;
59024;SDS011;44806;48.008;13.666;2022-08-21T04:30:09;234.27;;;61.75;;
59024;SDS011;44806;48.008;13.666;2022-08-21T04:32:43;157.88;;;50.05;;
59024;SDS011;44806;48.008;13.666;2022-08-21T04:35:11;480.77;;;103.75;;
59024;SDS011;44806;48.008;13.666;2022-08-21T04:37:39;452.42;;;77.30;;
59024;SDS011;44806;48.008;13.666;2022-08-21T04:40:08;144.32;;;42.45;;
59024;SDS011;44806;48.008;13.666;2022-08-21T04:42:42;144.27;;;43.95;;
59024;SDS011;44806;48.008;13.666;2022-08-21T04:45:15;395.23;;;73.35;;
59024;SDS011;44806;48.008;13.666;2022-08-21T04:47:46;474.63;;;99.20;;
59024;SDS011;44806;48.008;13.666;2022-08-21T04:50:15;319.00;;;62.42;;
59024;SDS011;44806;48.008;13.666;2022-08-21T04:52:42;184.27;;;42.00;;
59024;SDS011;44806;48.008;13.666;2022-08-21T04:55:10;182.13;;;58.75;;
59024;SDS011;44806;48.008;13.666;2022-08-21T04:57:42;288.15;;;52.70;;
59024;SDS011;44806;48.008;13.666;2022-08-21T05:00:10;444.98;;;84.63;;
59024;SDS011;44806;48.008;13.666;2022-08-21T05:02:39;269.65;;;48.72;;
59024;SDS011;44806;48.008;13.666;2022-08-21T05:05:12;431.50;;;82.63;;
59024;SDS011;44806;48.008;13.666;2022-08-21T05:07:41;317.52;;;69.22;;
59024;SDS011;44806;48.008;13.666;2022-08-21T05:10:10;225.35;;;62.70;;
59024;SDS011;44806;48.008;13.666;2022-08-21T05:12:39;239.75;;;43.97;;
59024;SDS011;44806;48.008;13.666;2022-08-21T05:15:09;237.80;;;57.28;;
59024;SDS011;44806;48.008;13.666;2022-08-21T05:17:38;434.95;;;81.90;;
59024;SDS011;44806;48.008;13.666;2022-08-21T05:20:06;173.13;;;63.33;;
59024;SDS011;44806;48.008;13.666;2022-08-21T05:22:34;444.08;;;96.95;;
59024;SDS011;44806;48.008;13.666;2022-08-21T05:25:01;189.52;;;46.55;;
59024;SDS011;44806;48.008;13.666;2022-08-21T05:27:30;354.27;;;62.33;;
59024;SDS011;44806;48.008;13.666;2022-08-21T05:29:58;433.02;;;85.43;;
59024;SDS011;44806;48.008;13.666;2022-08-21T05:32:26;207.25;;;54.17;;
59024;SDS011;44806;48.008;13.666;2022-08-21T05:34:53;181.70;;;44.70;;
59024;SDS011;44806;48.008;13.666;2022-08-21T05:37:21;269.75;;;67.07;;
59024;SDS011;44806;48.008;13.666;2022-08-21T05:39:48;457.88;;;75.10;;
59024;SDS011;44806;48.008;13.666;2022-08-21T05:42:16;184.25;;;54.58;;
59024;SDS011;44806;48.008;13.666;2022-08-21T05:44:45;169.85;;;63.83;;
59024;SDS011;44806;48.008;13.666;2022-08-21T05:47:14;192.15;;;51.92;;
59024;SDS011;44806;48.008;13.666;2022-08-21T05:49:42;406.95;;;90.60;;
59024;SDS011;44806;48.008;13.666;2022-08-21T05:52:09;457.42;;;117.20;;
59024;SDS011;44806;48.008;13.666;2022-08-21T05:54:37;524.20;;;124.13;;
59024;SDS011;44806;48.008;13.666;2022-08-21T05:57:07;351.88;;;63.60;;
59024;SDS011;44806;48.008;13.666;2022-08-21T05:59:36;356.05;;;74.88;;
59024;SDS011;44806;48.008;13.666;2022-08-21T06:02:04;360.55;;;75.28;;
59024;SDS011;44806;48.008;13.666;2022-08-21T06:04:36;407.58;;;76.43;;
59024;SDS011;44806;48.008;13.666;2022-08-21T06:07:04;423.45;;;108.05;;
59024;SDS011;44806;48.008;13.666;2022-08-21T06:09:33;377.80;;;77.28;;
59024;SDS011;44806;48.008;13.666;2022-08-21T06:12:03;369.65;;;81.85;;
59024;SDS011;44806;48.008;13.666;2022-08-21T06:14:31;170.98;;;55.13;;
59024;SDS011;44806;48.008;13.666;2022-08-21T06:17:01;201.32;;;54.70;;
59024;SDS011;44806;48.008;13.666;2022-08-21T06:19:30;166.25;;;48.10;;
59024;SDS011;44806;48.008;13.666;2022-08-21T06:21:59;388.88;;;73.03;;
59024;SDS011;44806;48.008;13.666;2022-08-21T06:24:27;342.67;;;79.28;;
59024;SDS011;44806;48.008;13.666;2022-08-21T06:26:55;191.20;;;41.97;;
59024;SDS011;44806;48.008;13.666;2022-08-21T06:29:23;158.10;;;52.17;;
59024;SDS011;44806;48.008;13.666;2022-08-21T06:31:50;436.45;;;89.60;;
59024;SDS011;44806;48.008;13.666;2022-08-21T06:34:18;379.40;;;104.57;;
59024;SDS011;44806;48.008;13.666;2022-08-21T06:36:46;166.45;;;57.42;;
59024;SDS011;44806;48.008;13.666;2022-08-21T06:39:14;267.67;;;58.58;;
59024;SDS011;44806;48.008;13.666;2022-08-21T06:41:42;277.35;;;65.97;;
59024;SDS011;44806;48.008;13.666;2022-08-21T06:44:09;136.70;;;50.13;;
59024;SDS011;44806;48.008;13.666;2022-08-21T06:46:37;136.25;;;39.95;;
59024;SDS011;44806;48.008;13.666;2022-08-21T06:49:04;192.02;;;51.60;;
59024;SDS011;44806;48.008;13.666;2022-08-21T06:51:34;216.75;;;57.80;;
59024;SDS011;44806;48.008;13.666;2022-08-21T06:54:01;411.63;;;76.38;;
59024;SDS011;44806;48.008;13.666;2022-08-21T06:56:30;253.77;;;47.75;;
59024;SDS011;44806;48.008;13.666;2022-08-21T06:58:58;210.20;;;47.65;;
59024;SDS011;44806;48.008;13.666;2022-08-21T07:01:26;210.48;;;51.63;;
59024;SDS011;44806;48.008;13.666;2022-08-21T07:03:55;305.98;;;68.40;;
59024;SDS011;44806;48.008;13.666;2022-08-21T07:06:23;351.25;;;69.93;;
59024;SDS011;44806;48.008;13.666;2022-08-21T07:08:53;202.20;;;43.78;;
59024;SDS011;44806;48.008;13.666;2022-08-21T07:11:21;198.40;;;49.22;;
59024;SDS011;44806;48.008;13.666;2022-08-21T07:13:55;207.70;;;54.55;;
59024;SDS011;44806;48.008;13.666;2022-08-21T07:16:23;287.83;;;55.28;;
59024;SDS011;44806;48.008;13.666;2022-08-21T07:18:51;235.75;;;62.25;;
59024;SDS011;44806;48.008;13.666;2022-08-21T07:21:18;214.38;;;72.95;;
59024;SDS011;44806;48.008;13.666;2022-08-21T07:23:49;264.70;;;95.75;;
59024;SDS011;44806;48.008;13.666;2022-08-21T07:26:18;370.30;;;83.50;;
59024;SDS011;44806;48.008;13.666;2022-08-21T07:28:47;308.90;;;67.80;;
59024;SDS011;44806;48.008;13.666;2022-08-21T07:31:17;402.60;;;77.75;;
59024;SDS011;44806;48.008;13.666;2022-08-21T07:33:46;328.17;;;78.10;;
59024;SDS011;44806;48.008;13.666;2022-08-21T07:36:14;470.90;;;74.28;;
59024;SDS011;44806;48.008;13.666;2022-08-21T07:38:42;154.57;;;50.67;;
59024;SDS011;44806;48.008;13.666;2022-08-21T07:41:12;173.63;;;53.75;;
59024;SDS011;44806;48.008;13.666;2022-08-21T07:43:41;291.30;;;94.00;;
59024;SDS011;44806;48.008;13.666;2022-08-21T07:46:09;320.02;;;73.20;;
59024;SDS011;44806;48.008;13.666;2022-08-21T07:48:38;374.50;;;70.53;;
59024;SDS011;44806;48.008;13.666;2022-08-21T07:51:07;228.93;;;56.28;;
59024;SDS011;44806;48.008;13.666;2022-08-21T07:53:36;280.75;;;66.65;;
59024;SDS011;44806;48.008;13.666;2022-08-21T07:56:04;452.92;;;77.57;;
59024;SDS011;44806;48.008;13.666;2022-08-21T07:58:33;366.48;;;80.18;;
59024;SDS011;44806;48.008;13.666;2022-08-21T08:01:03;336.27;;;79.90;;
59024;SDS011;44806;48.008;13.666;2022-08-21T08:03:33;455.27;;;69.10;;
59024;SDS011;44806;48.008;13.666;2022-08-21T08:06:03;368.05;;;81.85;;
59024;SDS011;44806;48.008;13.666;2022-08-21T08:08:31;477.55;;;125.15;;
59024;SDS011;44806;48.008;13.666;2022-08-21T08:10:59;488.55;;;103.13;;
59024;SDS011;44806;48.008;13.666;2022-08-21T08:13:27;449.63;;;96.05;;
59024;SDS011;44806;48.008;13.666;2022-08-21T08:15:54;448.35;;;88.82;;
59024;SDS011;44806;48.008;13.666;2022-08-21T08:18:22;470.63;;;90.55;;
59024;SDS011;44806;48.008;13.666;2022-08-21T08:20:49;372.45;;;77.35;;
59024;SDS011;44806;48.008;13.666;2022-08-21T08:23:18;358.88;;;76.10;;
59024;SDS011;44806;48.008;13.666;2022-08-21T08:25:46;359.30;;;86.22;;
59024;SDS011;44806;48.008;13.666;2022-08-21T08:28:13;474.25;;;96.97;;
59024;SDS011;44806;48.008;13.666;2022-08-21T08:30:41;452.35;;;83.72;;
59024;SDS011;44806;48.008;13.666;2022-08-21T08:33:08;355.38;;;78.85;;
59024;SDS011;44806;48.008;13.666;2022-08-21T08:35:36;574.78;;;146.73;;
59024;SDS011;44806;48.008;13.666;2022-08-21T08:38:03;351.10;;;71.88;;
59024;SDS011;44806;48.008;13.666;2022-08-21T08:40:35;441.33;;;89.40;;
59024;SDS011;44806;48.008;13.666;2022-08-21T08:43:09;581.55;;;134.75;;
59024;SDS011;44806;48.008;13.666;2022-08-21T08:45:40;428.40;;;91.70;;
59024;SDS011;44806;48.008;13.666;2022-08-21T08:48:12;480.30;;;101.13;;
59024;SDS011;44806;48.008;13.666;2022-08-21T08:50:47;401.73;;;70.28;;
59024;SDS011;44806;48.008;13.666;2022-08-21T08:53:19;540.00;;;106.15;;
59024;SDS011;44806;48.008;13.666;2022-08-21T08:55:52;414.52;;;81.28;;
59024;SDS011;44806;48.008;13.666;2022-08-21T08:58:22;390.90;;;73.55;;
59024;SDS011;44806;48.008;13.666;2022-08-21T09:00:52;454.27;;;81.05;;
59024;SDS011;44806;48.008;13.666;2022-08-21T09:03:21;482.95;;;101.20;;
59024;SDS011;44806;48.008;13.666;2022-08-21T09:05:55;499.17;;;123.80;;
59024;SDS011;44806;48.008;13.666;2022-08-21T09:08:40;414.15;;;90.25;;
59024;SDS011;44806;48.008;13.666;2022-08-21T09:11:20;391.63;;;101.90;;
59024;SDS011;44806;48.008;13.666;2022-08-21T09:14:00;286.63;;;66.68;;
59024;SDS011;44806;48.008;13.666;2022-08-21T09:16:40;329.45;;;70.60;;
59024;SDS011;44806;48.008;13.666;2022-08-21T09:21:52;430.35;;;119.22;;
59024;SDS011;44806;48.008;13.666;2022-08-21T09:24:29;216.07;;;50.67;;
59024;SDS011;44806;48.008;13.666;2022-08-21T09:27:05;279.92;;;65.38;;
59024;SDS011;44806;48.008;13.666;2022-08-21T09:29:35;429.65;;;97.90;;
59024;SDS011;44806;48.008;13.666;2022-08-21T09:32:08;508.02;;;117.22;;
59024;SDS011;44806;48.008;13.666;2022-08-21T09:34:37;460.30;;;106.70;;
59024;SDS011;44806;48.008;13.666;2022-08-21T09:37:05;392.58;;;78.15;;
59024;SDS011;44806;48.008;13.666;2022-08-21T09:39:43;389.20;;;75.10;;
59024;SDS011;44806;48.008;13.666;2022-08-21T09:42:22;449.75;;;80.65;;
59024;SDS011;44806;48.008;13.666;2022-08-21T09:45:04;440.02;;;90.95;;
59024;SDS011;44806;48.008;13.666;2022-08-21T09:47:39;407.98;;;83.47;;
59024;SDS011;44806;48.008;13.666;2022-08-21T09:50:07;416.15;;;85.13;;
59024;SDS011;44806;48.008;13.666;2022-08-21T09:52:43;445.80;;;86.50;;
59024;SDS011;44806;48.008;13.666;2022-08-21T09:55:18;401.50;;;98.82;;
59024;SDS011;44806;48.008;13.666;2022-08-21T09:58:07;755.78;;;149.32;;
59024;SDS011;44806;48.008;13.666;2022-08-21T10:00:35;433.27;;;87.38;;
59024;SDS011;44806;48.008;13.666;2022-08-21T10:03:11;628.10;;;125.45;;
59024;SDS011;44806;48.008;13.666;2022-08-21T10:05:49;540.65;;;120.40;;
59024;SDS011;44806;48.008;13.666;2022-08-21T10:08:20;728.80;;;126.10;;
59024;SDS011;44806;48.008;13.666;2022-08-21T10:10:50;700.05;;;158.20;;
59024;SDS011;44806;48.008;13.666;2022-08-21T10:13:29;421.25;;;82.03;;
59024;SDS011;44806;48.008;13.666;2022-08-21T10:16:13;701.85;;;158.60;;
59024;SDS011;44806;48.008;13.666;2022-08-21T10:18:52;493.67;;;95.65;;
59024;SDS011;44806;48.008;13.666;2022-08-21T10:21:35;533.75;;;107.57;;
59024;SDS011;44806;48.008;13.666;2022-08-21T10:24:17;872.70;;;155.10;;
59024;SDS011;44806;48.008;13.666;2022-08-21T10:26:53;579.30;;;130.93;;
59024;SDS011;44806;48.008;13.666;2022-08-21T10:29:34;386.98;;;88.95;;
59024;SDS011;44806;48.008;13.666;2022-08-21T10:32:14;563.60;;;129.73;;
59024;SDS011;44806;48.008;13.666;2022-08-21T10:34:54;1082.22;;;192.85;;
59024;SDS011;44806;48.008;13.666;2022-08-21T10:37:27;441.55;;;93.70;;
59024;SDS011;44806;48.008;13.666;2022-08-21T10:40:08;921.90;;;173.93;;
59024;SDS011;44806;48.008;13.666;2022-08-21T10:42:49;764.85;;;160.98;;
59024;SDS011;44806;48.008;13.666;2022-08-21T10:45:31;649.20;;;105.28;;
59024;SDS011;44806;48.008;13.666;2022-08-21T10:48:06;990.75;;;206.18;;
59024;SDS011;44806;48.008;13.666;2022-08-21T10:50:38;934.22;;;182.30;;
59024;SDS011;44806;48.008;13.666;2022-08-21T10:56:04;578.95;;;117.18;;
59024;SDS011;44806;48.008;13.666;2022-08-21T10:58:43;842.83;;;170.18;;
59024;SDS011;44806;48.008;13.666;2022-08-21T11:01:20;677.40;;;146.43;;
59024;SDS011;44806;48.008;13.666;2022-08-21T11:03:54;923.90;;;177.57;;
59024;SDS011;44806;48.008;13.666;2022-08-21T11:06:39;1999.90;;;594.88;;
59024;SDS011;44806;48.008;13.666;2022-08-21T11:09:12;1999.90;;;488.58;;
59024;SDS011;44806;48.008;13.666;2022-08-21T11:11:45;901.95;;;186.85;;
59024;SDS011;44806;48.008;13.666;2022-08-21T11:14:21;880.78;;;165.93;;
59024;SDS011;44806;48.008;13.666;2022-08-21T11:17:02;1999.90;;;610.88;;
59024;SDS011;44806;48.008;13.666;2022-08-21T11:19:35;699.63;;;153.32;;
59024;SDS011;44806;48.008;13.666;2022-08-21T11:22:11;1999.90;;;486.50;;
59024;SDS011;44806;48.008;13.666;2022-08-21T11:24:47;1999.90;;;544.83;;
59024;SDS011;44806;48.008;13.666;2022-08-21T11:27:21;1999.90;;;429.42;;
59024;SDS011;44806;48.008;13.666;2022-08-21T11:29:53;825.70;;;161.55;;
59024;SDS011;44806;48.008;13.666;2022-08-21T11:35:26;929.75;;;215.48;;
59024;SDS011;44806;48.008;13.666;2022-08-21T11:38:05;1999.90;;;537.88;;
59024;SDS011;44806;48.008;13.666;2022-08-21T11:40:54;976.05;;;240.13;;
59024;SDS011;44806;48.008;13.666;2022-08-21T11:43:35;1999.90;;;461.52;;
59024;SDS011;44806;48.008;13.666;2022-08-21T11:46:11;1999.90;;;436.30;;
59024;SDS011;44806;48.008;13.666;2022-08-21T11:48:51;1999.90;;;555.83;;
59024;SDS011;44806;48.008;13.666;2022-08-21T11:51:28;1999.90;;;503.73;;
59024;SDS011;44806;48.008;13.666;2022-08-21T11:54:05;1999.90;;;490.48;;
59024;SDS011;44806;48.008;13.666;2022-08-21T11:56:41;1999.90;;;518.47;;
59024;SDS011;44806;48.008;13.666;2022-08-21T11:59:16;1999.90;;;512.08;;
59024;SDS011;44806;48.008;13.666;2022-08-21T12:01:48;1999.90;;;495.20;;
59024;SDS011;44806;48.008;13.666;2022-08-21T12:04:24;1999.90;;;479.45;;
59024;SDS011;44806;48.008;13.666;2022-08-21T12:06:55;1999.90;;;460.75;;
59024;SDS011;44806;48.008;13.666;2022-08-21T12:09:34;1999.90;;;502.27;;
59024;SDS011;44806;48.008;13.666;2022-08-21T12:12:03;1999.90;;;504.40;;
59024;SDS011;44806;48.008;13.666;2022-08-21T12:14:36;1999.90;;;494.42;;
59024;SDS011;44806;48.008;13.666;2022-08-21T12:17:15;1999.90;;;513.67;;
59024;SDS011;44806;48.008;13.666;2022-08-21T12:19:58;1999.90;;;506.00;;
59024;SDS011;44806;48.008;13.666;2022-08-21T12:22:35;1999.90;;;468.80;;
59024;SDS011;44806;48.008;13.666;2022-08-21T12:25:06;1999.90;;;461.55;;
59024;SDS011;44806;48.008;13.666;2022-08-21T12:27:41;1999.90;;;515.22;;
59024;SDS011;44806;48.008;13.666;2022-08-21T12:30:20;1999.90;;;502.30;;
59024;SDS011;44806;48.008;13.666;2022-08-21T12:32:54;1999.90;;;484.30;;
59024;SDS011;44806;48.008;13.666;2022-08-21T12:35:26;1999.90;;;480.35;;
59024;SDS011;44806;48.008;13.666;2022-08-21T12:38:00;1999.90;;;539.17;;
59024;SDS011;44806;48.008;13.666;2022-08-21T12:40:37;1999.90;;;486.08;;
59024;SDS011;44806;48.008;13.666;2022-08-21T12:43:11;1999.90;;;494.27;;
59024;SDS011;44806;48.008;13.666;2022-08-21T12:45:47;1999.90;;;481.38;;
59024;SDS011;44806;48.008;13.666;2022-08-21T12:48:18;1999.90;;;443.02;;
59024;SDS011;44806;48.008;13.666;2022-08-21T12:50:51;1999.90;;;481.33;;
59024;SDS011;44806;48.008;13.666;2022-08-21T12:53:24;1999.90;;;469.92;;
59024;SDS011;44806;48.008;13.666;2022-08-21T12:55:55;1999.90;;;553.70;;
59024;SDS011;44806;48.008;13.666;2022-08-21T12:58:27;1999.90;;;524.13;;
59024;SDS011;44806;48.008;13.666;2022-08-21T13:00:56;1999.90;;;490.50;;
59024;SDS011;44806;48.008;13.666;2022-08-21T13:03:31;1999.90;;;502.25;;
59024;SDS011;44806;48.008;13.666;2022-08-21T13:06:06;1999.90;;;435.48;;
59024;SDS011;44806;48.008;13.666;2022-08-21T13:08:40;1999.90;;;498.15;;
59024;SDS011;44806;48.008;13.666;2022-08-21T13:11:10;1999.90;;;448.88;;
59024;SDS011;44806;48.008;13.666;2022-08-21T13:13:40;1999.90;;;508.65;;
59024;SDS011;44806;48.008;13.666;2022-08-21T13:16:09;1999.90;;;491.95;;
59024;SDS011;44806;48.008;13.666;2022-08-21T13:18:51;1999.90;;;431.25;;
59024;SDS011;44806;48.008;13.666;2022-08-21T13:21:26;1999.90;;;500.27;;
59024;SDS011;44806;48.008;13.666;2022-08-21T13:24:06;1999.90;;;506.77;;
59024;SDS011;44806;48.008;13.666;2022-08-21T13:26:40;1999.90;;;581.85;;
59024;SDS011;44806;48.008;13.666;2022-08-21T13:29:08;1999.90;;;585.08;;
59024;SDS011;44806;48.008;13.666;2022-08-21T13:31:37;1999.90;;;494.20;;
59024;SDS011;44806;48.008;13.666;2022-08-21T13:34:08;1999.90;;;539.10;;
59024;SDS011;44806;48.008;13.666;2022-08-21T13:36:39;1999.90;;;460.48;;
59024;SDS011;44806;48.008;13.666;2022-08-21T13:39:09;1999.90;;;455.60;;
59024;SDS011;44806;48.008;13.666;2022-08-21T13:41:40;1999.90;;;512.03;;
59024;SDS011;44806;48.008;13.666;2022-08-21T13:44:15;1999.90;;;508.25;;
59024;SDS011;44806;48.008;13.666;2022-08-21T13:46:44;1999.90;;;519.85;;
59024;SDS011;44806;48.008;13.666;2022-08-21T13:49:13;1999.90;;;477.23;;
59024;SDS011;44806;48.008;13.666;2022-08-21T13:51:44;1999.90;;;483.85;;
59024;SDS011;44806;48.008;13.666;2022-08-21T13:54:14;1999.90;;;506.85;;
59024;SDS011;44806;48.008;13.666;2022-08-21T13:56:43;1999.90;;;443.08;;
59024;SDS011;44806;48.008;13.666;2022-08-21T13:59:23;1999.90;;;492.92;;
59024;SDS011;44806;48.008;13.666;2022-08-21T14:01:54;1838.63;;;392.58;;
59024;SDS011;44806;48.008;13.666;2022-08-21T14:04:26;1999.90;;;519.03;;
59024;SDS011;44806;48.008;13.666;2022-08-21T14:07:00;1999.90;;;507.15;;
59024;SDS011;44806;48.008;13.666;2022-08-21T14:09:30;1999.90;;;482.58;;
59024;SDS011;44806;48.008;13.666;2022-08-21T14:12:00;647.92;;;135.93;;
59024;SDS011;44806;48.008;13.666;2022-08-21T14:14:30;1999.90;;;445.35;;
59024;SDS011;44806;48.008;13.666;2022-08-21T14:17:01;1999.90;;;486.00;;
59024;SDS011;44806;48.008;13.666;2022-08-21T14:19:36;1999.90;;;498.60;;
59024;SDS011;44806;48.008;13.666;2022-08-21T14:25:07;1999.90;;;483.92;;